createdAt,value
2022-09-21T00:03:38.702Z,8.89
2022-09-21T00:08:46.033Z,8.93
2022-09-21T00:13:55.185Z,9.00
2022-09-21T00:19:01.224Z,9.08
2022-09-21T00:24:08.118Z,9.12
2022-09-21T00:29:14.049Z,9.15
2022-09-21T00:34:19.918Z,9.24
2022-09-21T00:39:25.918Z,9.34
2022-09-21T00:44:33.316Z,9.41
2022-09-21T00:49:40.033Z,9.45
2022-09-21T00:54:50.606Z,9.52
2022-09-21T01:00:01.354Z,9.61
2022-09-21T01:05:10.085Z,9.62
2022-09-21T01:10:18.524Z,9.59
2022-09-21T01:15:35.110Z,9.64
2022-09-21T01:21:23.061Z,9.66
2022-09-21T01:26:44.960Z,9.65
2022-09-21T01:31:56.516Z,9.71
2022-09-21T01:37:08.468Z,9.76
2022-09-21T01:42:17.789Z,9.78
2022-09-21T01:47:25.262Z,9.84
2022-09-21T01:52:36.249Z,9.88
2022-09-21T01:57:49.987Z,9.90
2022-09-21T02:03:00.433Z,9.93
2022-09-21T02:08:07.575Z,9.95
2022-09-21T02:13:16.713Z,9.94
2022-09-21T02:18:35.886Z,9.93
2022-09-21T02:23:52.973Z,9.92
2022-09-21T02:29:07.657Z,9.96
2022-09-21T02:34:21.853Z,9.97
2022-09-21T02:39:35.528Z,9.98
2022-09-21T02:44:45.726Z,10.01
2022-09-21T02:49:56.604Z,10.02
2022-09-21T02:55:04.087Z,10.04
2022-09-21T03:00:12.608Z,10.06
2022-09-21T03:05:18.342Z,10.05
2022-09-21T03:10:24.159Z,10.06
2022-09-21T03:15:29.949Z,10.07
2022-09-21T03:20:36.590Z,10.07
2022-09-21T03:25:48.223Z,10.08
2022-09-21T03:30:54.433Z,10.13
2022-09-21T03:36:00.333Z,10.16
2022-09-21T03:41:07.127Z,10.16
2022-09-21T03:46:13.219Z,10.18
2022-09-21T03:51:18.959Z,10.21
2022-09-21T03:56:24.752Z,10.25
2022-09-21T04:01:31.341Z,10.29
2022-09-21T04:06:37.383Z,10.32
2022-09-21T04:11:44.649Z,10.33
2022-09-21T04:16:52.068Z,10.37
2022-09-21T04:21:58.727Z,10.39
2022-09-21T04:27:09.936Z,10.41
2022-09-21T04:32:17.825Z,10.45
2022-09-21T04:37:23.537Z,10.47
2022-09-21T04:42:29.271Z,10.50
2022-09-21T04:47:35.051Z,10.56
2022-09-21T04:52:40.814Z,10.59
2022-09-21T04:57:46.561Z,10.61
2022-09-21T05:02:52.345Z,10.61
2022-09-21T05:07:58.094Z,10.65
2022-09-21T05:13:03.898Z,10.71
2022-09-21T05:18:09.979Z,10.73
2022-09-21T05:23:16.908Z,10.75
2022-09-21T05:28:23.576Z,10.78
2022-09-21T05:33:32.761Z,10.86
2022-09-21T05:38:39.544Z,10.93
2022-09-21T05:43:46.267Z,11.03
2022-09-21T05:48:59.915Z,11.10
2022-09-21T05:54:15.466Z,11.15
2022-09-21T05:59:42.954Z,11.20
2022-09-21T06:04:50.601Z,11.30
2022-09-21T06:09:56.340Z,11.43
2022-09-21T06:15:02.109Z,11.51
2022-09-21T06:20:09.782Z,11.56
2022-09-21T06:25:43.324Z,11.61
2022-09-21T06:30:54.192Z,11.64
2022-09-21T06:36:00.670Z,11.63
2022-09-21T06:41:06.975Z,11.76
2022-09-21T06:50:22.486Z,12.00
2022-09-21T06:55:29.405Z,12.03
2022-09-21T07:00:35.261Z,12.18
2022-09-21T07:05:44.750Z,12.50
2022-09-21T07:10:51.063Z,12.87
2022-09-21T07:15:57.056Z,12.94
2022-09-21T07:21:05.409Z,12.93
2022-09-21T07:26:13.393Z,12.98
2022-09-21T07:31:19.271Z,13.17
2022-09-21T07:36:25.251Z,13.34
2022-09-21T07:41:31.274Z,13.40
2022-09-21T07:46:39.105Z,13.69
2022-09-21T07:51:47.106Z,14.35
2022-09-21T07:57:11.732Z,14.37
2022-09-21T08:02:17.711Z,14.51
2022-09-21T08:07:23.925Z,14.89
2022-09-21T08:12:29.996Z,15.09
2022-09-21T08:17:37.485Z,14.97
2022-09-21T08:22:43.314Z,14.66
2022-09-21T08:27:49.255Z,14.42
2022-09-21T08:32:57.013Z,14.21
2022-09-21T08:38:02.984Z,14.13
2022-09-21T08:43:13.870Z,14.25
2022-09-21T08:48:24.046Z,14.68
2022-09-21T08:53:36.645Z,14.73
2022-09-21T08:58:43.600Z,14.53
2022-09-21T09:04:08.697Z,14.41
2022-09-21T09:09:33.594Z,14.31
2022-09-21T09:14:56.207Z,14.17
2022-09-21T09:20:06.434Z,14.26
2022-09-21T09:25:21.420Z,14.53
2022-09-21T09:30:30.710Z,15.13
2022-09-21T09:35:44.674Z,15.56
2022-09-21T09:41:21.217Z,15.61
2022-09-21T09:46:35.420Z,15.91
2022-09-21T09:51:42.938Z,15.83
2022-09-21T09:56:48.746Z,15.56
2022-09-21T10:02:04.540Z,15.26
2022-09-21T10:07:19.838Z,15.00
2022-09-21T10:12:28.098Z,14.77
2022-09-21T10:17:34.249Z,14.75
2022-09-21T10:22:40.558Z,14.93
2022-09-21T10:27:50.829Z,14.92
2022-09-21T10:32:58.393Z,14.99
2022-09-21T10:38:22.121Z,15.35
2022-09-21T10:43:35.932Z,16.74
2022-09-21T10:48:46.486Z,17.06
2022-09-21T10:53:54.450Z,16.97
2022-09-21T10:59:21.989Z,17.39
2022-09-21T11:04:49.551Z,18.17
2022-09-21T11:10:03.695Z,18.26
2022-09-21T11:15:23.853Z,17.99
2022-09-21T11:20:36.545Z,18.43
2022-09-21T11:25:48.452Z,18.65
2022-09-21T11:31:12.799Z,18.68
2022-09-21T11:36:27.025Z,18.40
2022-09-21T11:41:58.590Z,17.94
2022-09-21T11:47:16.585Z,17.63
2022-09-21T11:52:36.817Z,18.01
2022-09-21T11:57:52.857Z,18.68
2022-09-21T12:03:50.729Z,19.10
2022-09-21T12:09:17.921Z,19.25
2022-09-21T12:19:52.109Z,19.34
2022-09-21T12:25:04.292Z,19.42
2022-09-21T12:30:16.986Z,19.50
2022-09-21T12:35:28.888Z,19.52
2022-09-21T12:40:43.419Z,19.53
2022-09-21T12:45:55.192Z,19.83
2022-09-21T12:51:06.486Z,20.04
2022-09-21T12:56:21.251Z,19.96
2022-09-21T13:01:33.274Z,19.81
2022-09-21T13:07:08.267Z,19.62
2022-09-21T13:12:21.440Z,19.39
2022-09-21T13:17:31.468Z,19.30
2022-09-21T13:22:39.970Z,19.08
2022-09-21T13:28:17.264Z,18.72
2022-09-21T13:33:37.821Z,18.50
2022-09-21T13:39:13.808Z,17.96
2022-09-21T13:44:43.340Z,17.70
2022-09-21T13:49:55.888Z,17.60
2022-09-21T13:55:16.092Z,17.33
2022-09-21T14:00:37.615Z,16.97
2022-09-21T14:05:46.407Z,16.66
2022-09-21T14:10:56.833Z,16.26
2022-09-21T14:16:47.625Z,15.91
2022-09-21T14:22:06.248Z,15.55
2022-09-21T14:27:19.334Z,15.64
2022-09-21T14:32:28.544Z,15.81
2022-09-21T14:37:37.840Z,16.09
2022-09-21T14:42:44.443Z,16.34
2022-09-21T14:48:08.998Z,16.52
2022-09-21T14:53:42.538Z,16.36
2022-09-21T14:59:07.638Z,16.15
2022-09-21T15:04:31.506Z,15.92
2022-09-21T15:10:29.928Z,15.75
2022-09-21T15:15:41.426Z,15.51
2022-09-21T15:20:54.217Z,15.26
2022-09-21T15:26:04.620Z,15.12
2022-09-21T15:31:12.438Z,15.03
2022-09-21T15:36:24.236Z,14.93
2022-09-21T15:41:45.477Z,14.88
2022-09-21T15:46:58.039Z,14.77
2022-09-21T15:52:11.550Z,14.64
2022-09-21T15:57:40.507Z,14.41
2022-09-21T16:03:04.834Z,14.05
2022-09-21T16:08:22.641Z,13.71
2022-09-21T16:13:52.560Z,13.50
2022-09-21T16:19:02.231Z,13.27
2022-09-21T16:24:19.001Z,13.13
2022-09-21T16:29:26.798Z,13.02
2022-09-21T16:34:36.818Z,12.86
2022-09-21T16:39:42.678Z,12.69
2022-09-21T16:44:49.458Z,12.55
2022-09-21T16:49:57.790Z,12.48
2022-09-21T16:55:03.958Z,12.42
2022-09-21T17:00:14.418Z,12.31
2022-09-21T17:05:20.642Z,12.14
2022-09-21T17:10:31.847Z,11.99
2022-09-21T17:15:36.513Z,11.88
2022-09-21T17:20:45.280Z,11.86
2022-09-21T17:25:52.515Z,11.84
2022-09-21T17:30:59.037Z,11.78
2022-09-21T17:36:07.958Z,11.70
2022-09-21T17:41:24.360Z,11.60
2022-09-21T17:46:40.910Z,11.49
2022-09-21T17:52:06.008Z,11.41
2022-09-21T17:57:29.717Z,11.29
2022-09-21T18:02:36.011Z,11.26
2022-09-21T18:07:42.704Z,11.25
2022-09-21T18:13:07.002Z,11.21
2022-09-21T18:18:19.764Z,11.16
2022-09-21T18:23:33.266Z,11.14
2022-09-21T18:28:43.991Z,11.14
2022-09-21T18:33:56.719Z,11.10
2022-09-21T18:39:18.357Z,10.97
2022-09-21T18:44:32.271Z,10.83
2022-09-21T18:49:54.430Z,10.72
2022-09-21T18:55:00.897Z,10.64
2022-09-21T19:00:11.411Z,10.56
2022-09-21T19:05:19.893Z,10.44
2022-09-21T19:10:32.781Z,10.37
2022-09-21T19:16:00.209Z,10.36
2022-09-21T19:21:18.241Z,10.38
2022-09-21T19:26:29.750Z,10.38
2022-09-21T19:31:36.510Z,10.39
2022-09-21T19:36:42.918Z,10.42
2022-09-21T19:42:04.111Z,10.43
2022-09-21T19:47:17.072Z,10.42
2022-09-21T19:52:28.488Z,10.47
2022-09-21T19:58:14.608Z,10.52
2022-09-21T20:03:31.310Z,10.55
2022-09-21T20:08:46.136Z,10.55
2022-09-21T20:14:18.090Z,10.54
2022-09-21T20:19:37.866Z,10.53
2022-09-21T20:24:54.160Z,10.51
2022-09-21T20:30:00.042Z,10.47
2022-09-21T20:35:14.385Z,10.42
2022-09-21T20:40:24.874Z,10.34
2022-09-21T20:45:32.405Z,10.20
2022-09-21T20:50:40.576Z,10.07
2022-09-21T20:55:54.680Z,9.97
2022-09-21T21:01:06.888Z,9.85
2022-09-21T21:06:15.078Z,9.69
2022-09-21T21:11:21.535Z,9.52
2022-09-21T21:16:27.403Z,9.41
2022-09-21T21:21:34.524Z,9.35
2022-09-21T21:27:03.204Z,9.34
2022-09-21T21:32:06.625Z,9.27
2022-09-21T21:37:13.577Z,9.16
2022-09-21T21:42:20.617Z,9.08
2022-09-21T21:47:41.835Z,9.00
2022-09-21T21:52:48.877Z,8.87
2022-09-21T21:57:54.569Z,8.69
2022-09-21T22:03:00.425Z,8.58
2022-09-21T22:08:06.730Z,8.58
2022-09-21T22:13:12.569Z,8.56
2022-09-21T22:18:18.435Z,8.48
2022-09-21T22:23:24.201Z,8.48
2022-09-21T22:28:30.000Z,8.51
2022-09-21T22:33:37.465Z,8.44
2022-09-21T22:38:43.674Z,8.36
2022-09-21T22:43:51.166Z,8.27
2022-09-21T22:48:57.143Z,8.22
2022-09-21T22:54:03.364Z,8.14
2022-09-21T22:59:09.656Z,8.00
2022-09-21T23:04:15.645Z,7.87
2022-09-21T23:09:22.441Z,7.83
2022-09-21T23:14:28.186Z,7.78
2022-09-21T23:19:34.185Z,7.67
2022-09-21T23:24:40.154Z,7.54
2022-09-21T23:29:45.834Z,7.40
2022-09-21T23:34:51.612Z,7.30
2022-09-21T23:39:57.277Z,7.14
2022-09-21T23:45:03.182Z,7.04
2022-09-21T23:50:10.659Z,7.00
2022-09-21T23:55:16.490Z,6.88
